X  Close Metar Aviation Weather Data        EGLF Farnborough
Temperature
3°C Temperature
-4°C Dewpoint
60% Humidity



Wind
7 MPH
11 KM/H
3 M/S
6 KTS



340°
NNW
Current Conditions

Cloudy Cloudy
Pressure 1027 (hPa) - 30.34 (inHg)
Visibility 30 (mile) - 48 (km)
Airport
Airport-code EGLF

Location: Farnborough
Distance: 5 (mi)

Metar:
METAR EGLF 071150Z AUTO 34006KT 310V010 9999 OVC036/// 03/M04 Q1027

Time: 07-03-2021 11:50 GMT